sensor_id;sensor_type;location;lat;lon;timestamp;P1;durP1;ratioP1;P2;durP2;ratioP2
46399;SDS011;32104;50.838;4.388;2024-02-14T00:01:49;5.80;;;2.15;;
46399;SDS011;32104;50.838;4.388;2024-02-14T00:04:18;2.65;;;1.92;;
46399;SDS011;32104;50.838;4.388;2024-02-14T00:06:50;3.97;;;1.60;;
46399;SDS011;32104;50.838;4.388;2024-02-14T00:09:26;6.82;;;1.77;;
46399;SDS011;32104;50.838;4.388;2024-02-14T00:11:56;8.77;;;1.98;;
46399;SDS011;32104;50.838;4.388;2024-02-14T00:14:28;4.13;;;1.88;;
46399;SDS011;32104;50.838;4.388;2024-02-14T00:16:56;5.20;;;1.60;;
46399;SDS011;32104;50.838;4.388;2024-02-14T00:19:34;4.53;;;1.92;;
46399;SDS011;32104;50.838;4.388;2024-02-14T00:22:04;8.15;;;1.30;;
46399;SDS011;32104;50.838;4.388;2024-02-14T00:24:40;4.95;;;1.73;;
46399;SDS011;32104;50.838;4.388;2024-02-14T00:27:06;5.05;;;1.90;;
46399;SDS011;32104;50.838;4.388;2024-02-14T00:29:38;6.30;;;1.90;;
46399;SDS011;32104;50.838;4.388;2024-02-14T00:32:22;3.28;;;1.40;;
46399;SDS011;32104;50.838;4.388;2024-02-14T00:34:54;5.47;;;1.70;;
46399;SDS011;32104;50.838;4.388;2024-02-14T00:37:23;2.53;;;1.30;;
46399;SDS011;32104;50.838;4.388;2024-02-14T00:39:57;3.13;;;1.50;;
46399;SDS011;32104;50.838;4.388;2024-02-14T00:42:46;4.72;;;1.60;;
46399;SDS011;32104;50.838;4.388;2024-02-14T00:45:16;4.65;;;1.67;;
46399;SDS011;32104;50.838;4.388;2024-02-14T00:47:47;7.00;;;1.40;;
46399;SDS011;32104;50.838;4.388;2024-02-14T00:50:27;3.35;;;1.13;;
46399;SDS011;32104;50.838;4.388;2024-02-14T00:53:04;7.03;;;1.58;;
46399;SDS011;32104;50.838;4.388;2024-02-14T01:21:02;8.75;;;2.78;;
46399;SDS011;32104;50.838;4.388;2024-02-14T01:24:13;3.92;;;2.05;;
46399;SDS011;32104;50.838;4.388;2024-02-14T01:26:56;6.78;;;2.22;;
46399;SDS011;32104;50.838;4.388;2024-02-14T01:29:46;7.18;;;2.13;;
46399;SDS011;32104;50.838;4.388;2024-02-14T01:32:22;9.57;;;2.15;;
46399;SDS011;32104;50.838;4.388;2024-02-14T01:35:02;6.72;;;2.10;;
46399;SDS011;32104;50.838;4.388;2024-02-14T01:37:36;11.27;;;3.10;;
46399;SDS011;32104;50.838;4.388;2024-02-14T01:40:16;9.85;;;2.53;;
46399;SDS011;32104;50.838;4.388;2024-02-14T01:42:51;8.73;;;2.40;;
46399;SDS011;32104;50.838;4.388;2024-02-14T01:45:17;4.70;;;2.35;;
46399;SDS011;32104;50.838;4.388;2024-02-14T01:47:46;6.93;;;2.53;;
46399;SDS011;32104;50.838;4.388;2024-02-14T01:50:15;3.65;;;2.25;;
46399;SDS011;32104;50.838;4.388;2024-02-14T02:00:00;7.90;;;3.10;;
46399;SDS011;32104;50.838;4.388;2024-02-14T02:03:46;6.82;;;2.50;;
46399;SDS011;32104;50.838;4.388;2024-02-14T02:10:08;8.00;;;3.08;;
46399;SDS011;32104;50.838;4.388;2024-02-14T02:13:00;10.88;;;2.92;;
46399;SDS011;32104;50.838;4.388;2024-02-14T02:19:58;7.88;;;3.00;;
46399;SDS011;32104;50.838;4.388;2024-02-14T02:23:15;10.25;;;2.85;;
46399;SDS011;32104;50.838;4.388;2024-02-14T02:29:17;11.82;;;3.50;;
46399;SDS011;32104;50.838;4.388;2024-02-14T02:32:10;11.40;;;3.60;;
46399;SDS011;32104;50.838;4.388;2024-02-14T02:38:23;8.93;;;3.88;;
46399;SDS011;32104;50.838;4.388;2024-02-14T02:41:31;13.90;;;3.60;;
46399;SDS011;32104;50.838;4.388;2024-02-14T02:44:30;9.43;;;3.38;;
46399;SDS011;32104;50.838;4.388;2024-02-14T02:47:44;10.95;;;3.10;;
46399;SDS011;32104;50.838;4.388;2024-02-14T02:50:39;10.63;;;3.47;;
46399;SDS011;32104;50.838;4.388;2024-02-14T02:53:37;12.85;;;4.03;;
46399;SDS011;32104;50.838;4.388;2024-02-14T02:56:54;6.75;;;3.38;;
46399;SDS011;32104;50.838;4.388;2024-02-14T02:59:41;8.60;;;3.75;;
46399;SDS011;32104;50.838;4.388;2024-02-14T03:02:15;14.30;;;3.53;;
46399;SDS011;32104;50.838;4.388;2024-02-14T03:04:48;9.73;;;4.03;;
46399;SDS011;32104;50.838;4.388;2024-02-14T03:07:44;8.40;;;2.92;;
46399;SDS011;32104;50.838;4.388;2024-02-14T03:13:34;10.55;;;4.03;;
46399;SDS011;32104;50.838;4.388;2024-02-14T03:16:34;8.52;;;3.70;;
46399;SDS011;32104;50.838;4.388;2024-02-14T03:19:03;13.20;;;3.92;;
46399;SDS011;32104;50.838;4.388;2024-02-14T03:22:02;14.07;;;4.07;;
46399;SDS011;32104;50.838;4.388;2024-02-14T03:24:38;8.73;;;4.25;;
46399;SDS011;32104;50.838;4.388;2024-02-14T03:27:14;14.38;;;3.70;;
46399;SDS011;32104;50.838;4.388;2024-02-14T03:29:42;14.82;;;4.38;;
46399;SDS011;32104;50.838;4.388;2024-02-14T03:32:13;12.20;;;3.83;;
46399;SDS011;32104;50.838;4.388;2024-02-14T03:34:39;8.40;;;3.75;;
46399;SDS011;32104;50.838;4.388;2024-02-14T03:37:13;11.85;;;4.65;;
46399;SDS011;32104;50.838;4.388;2024-02-14T03:42:44;11.98;;;4.63;;
46399;SDS011;32104;50.838;4.388;2024-02-14T03:45:38;9.98;;;4.22;;
46399;SDS011;32104;50.838;4.388;2024-02-14T03:48:07;12.77;;;4.82;;
46399;SDS011;32104;50.838;4.388;2024-02-14T03:51:10;13.45;;;4.15;;
46399;SDS011;32104;50.838;4.388;2024-02-14T03:56:25;18.45;;;6.07;;
46399;SDS011;32104;50.838;4.388;2024-02-14T03:58:58;18.55;;;5.50;;
46399;SDS011;32104;50.838;4.388;2024-02-14T04:01:45;16.92;;;5.13;;
46399;SDS011;32104;50.838;4.388;2024-02-14T04:04:21;18.05;;;5.68;;
46399;SDS011;32104;50.838;4.388;2024-02-14T04:06:58;18.63;;;5.30;;
46399;SDS011;32104;50.838;4.388;2024-02-14T04:10:04;14.95;;;5.82;;
46399;SDS011;32104;50.838;4.388;2024-02-14T04:12:45;18.40;;;6.25;;
46399;SDS011;32104;50.838;4.388;2024-02-14T04:15:32;13.27;;;5.47;;
46399;SDS011;32104;50.838;4.388;2024-02-14T04:18:19;15.20;;;5.57;;
46399;SDS011;32104;50.838;4.388;2024-02-14T04:24:22;19.60;;;6.18;;
46399;SDS011;32104;50.838;4.388;2024-02-14T04:26:52;15.57;;;6.65;;
46399;SDS011;32104;50.838;4.388;2024-02-14T04:29:25;15.63;;;5.75;;
46399;SDS011;32104;50.838;4.388;2024-02-14T04:32:00;17.17;;;6.68;;
46399;SDS011;32104;50.838;4.388;2024-02-14T04:34:40;19.50;;;6.82;;
46399;SDS011;32104;50.838;4.388;2024-02-14T04:40:21;19.27;;;6.60;;
46399;SDS011;32104;50.838;4.388;2024-02-14T04:42:56;12.63;;;5.72;;
46399;SDS011;32104;50.838;4.388;2024-02-14T04:45:55;17.45;;;6.50;;
46399;SDS011;32104;50.838;4.388;2024-02-14T04:48:40;15.38;;;6.13;;
46399;SDS011;32104;50.838;4.388;2024-02-14T04:51:31;17.63;;;6.78;;
46399;SDS011;32104;50.838;4.388;2024-02-14T04:57:05;14.63;;;6.35;;
46399;SDS011;32104;50.838;4.388;2024-02-14T04:59:47;14.75;;;5.88;;
46399;SDS011;32104;50.838;4.388;2024-02-14T05:02:33;14.82;;;5.55;;
46399;SDS011;32104;50.838;4.388;2024-02-14T05:05:47;14.48;;;5.93;;
46399;SDS011;32104;50.838;4.388;2024-02-14T05:08:28;14.65;;;5.53;;
46399;SDS011;32104;50.838;4.388;2024-02-14T05:11:56;9.57;;;5.53;;
46399;SDS011;32104;50.838;4.388;2024-02-14T05:14:48;15.30;;;5.90;;
46399;SDS011;32104;50.838;4.388;2024-02-14T05:20:39;15.40;;;5.90;;
46399;SDS011;32104;50.838;4.388;2024-02-14T05:23:37;15.45;;;5.97;;
46399;SDS011;32104;50.838;4.388;2024-02-14T05:26:27;14.68;;;5.82;;
46399;SDS011;32104;50.838;4.388;2024-02-14T05:29:27;16.38;;;6.13;;
46399;SDS011;32104;50.838;4.388;2024-02-14T05:32:14;14.82;;;6.45;;
46399;SDS011;32104;50.838;4.388;2024-02-14T05:34:53;12.70;;;6.35;;
46399;SDS011;32104;50.838;4.388;2024-02-14T05:37:37;17.55;;;6.30;;
46399;SDS011;32104;50.838;4.388;2024-02-14T05:40:22;15.48;;;6.95;;
46399;SDS011;32104;50.838;4.388;2024-02-14T05:43:22;16.20;;;6.25;;
46399;SDS011;32104;50.838;4.388;2024-02-14T05:49:39;17.23;;;5.75;;
46399;SDS011;32104;50.838;4.388;2024-02-14T05:52:41;18.42;;;7.40;;
46399;SDS011;32104;50.838;4.388;2024-02-14T05:55:34;20.65;;;7.40;;
46399;SDS011;32104;50.838;4.388;2024-02-14T05:58:21;17.05;;;6.22;;
46399;SDS011;32104;50.838;4.388;2024-02-14T06:01:09;15.85;;;5.72;;
46399;SDS011;32104;50.838;4.388;2024-02-14T06:03:49;19.83;;;6.30;;
46399;SDS011;32104;50.838;4.388;2024-02-14T06:06:52;17.98;;;6.47;;
46399;SDS011;32104;50.838;4.388;2024-02-14T06:13:01;15.82;;;6.05;;
46399;SDS011;32104;50.838;4.388;2024-02-14T06:15:57;16.42;;;6.13;;
46399;SDS011;32104;50.838;4.388;2024-02-14T06:18:54;15.02;;;6.80;;
46399;SDS011;32104;50.838;4.388;2024-02-14T06:22:11;14.13;;;5.90;;
46399;SDS011;32104;50.838;4.388;2024-02-14T06:25:02;13.88;;;5.65;;
46399;SDS011;32104;50.838;4.388;2024-02-14T06:27:36;18.85;;;6.43;;
46399;SDS011;32104;50.838;4.388;2024-02-14T06:30:29;18.83;;;5.82;;
46399;SDS011;32104;50.838;4.388;2024-02-14T06:33:03;15.07;;;5.82;;
46399;SDS011;32104;50.838;4.388;2024-02-14T06:36:09;22.13;;;5.90;;
46399;SDS011;32104;50.838;4.388;2024-02-14T06:39:02;18.20;;;5.50;;
46399;SDS011;32104;50.838;4.388;2024-02-14T06:41:41;15.20;;;5.50;;
46399;SDS011;32104;50.838;4.388;2024-02-14T06:44:29;19.67;;;5.65;;
46399;SDS011;32104;50.838;4.388;2024-02-14T06:47:25;15.20;;;5.07;;
46399;SDS011;32104;50.838;4.388;2024-02-14T06:54:25;17.05;;;5.70;;
46399;SDS011;32104;50.838;4.388;2024-02-14T06:57:27;17.20;;;5.05;;
46399;SDS011;32104;50.838;4.388;2024-02-14T07:00:38;14.50;;;5.22;;
46399;SDS011;32104;50.838;4.388;2024-02-14T07:09:26;10.70;;;4.93;;
46399;SDS011;32104;50.838;4.388;2024-02-14T07:12:27;21.17;;;6.10;;
46399;SDS011;32104;50.838;4.388;2024-02-14T07:15:13;12.93;;;5.57;;
46399;SDS011;32104;50.838;4.388;2024-02-14T07:18:08;13.55;;;6.07;;
46399;SDS011;32104;50.838;4.388;2024-02-14T07:20:57;15.80;;;5.60;;
46399;SDS011;32104;50.838;4.388;2024-02-14T07:23:32;17.35;;;5.78;;
46399;SDS011;32104;50.838;4.388;2024-02-14T07:26:31;14.80;;;5.13;;
46399;SDS011;32104;50.838;4.388;2024-02-14T07:29:11;15.35;;;5.85;;
46399;SDS011;32104;50.838;4.388;2024-02-14T07:31:41;14.25;;;5.68;;
46399;SDS011;32104;50.838;4.388;2024-02-14T07:34:07;16.95;;;5.63;;
46399;SDS011;32104;50.838;4.388;2024-02-14T07:36:37;19.92;;;5.30;;
46399;SDS011;32104;50.838;4.388;2024-02-14T07:39:29;21.95;;;5.72;;
46399;SDS011;32104;50.838;4.388;2024-02-14T07:42:09;13.52;;;5.40;;
46399;SDS011;32104;50.838;4.388;2024-02-14T07:44:42;14.73;;;5.93;;
46399;SDS011;32104;50.838;4.388;2024-02-14T07:47:27;14.05;;;6.47;;
46399;SDS011;32104;50.838;4.388;2024-02-14T07:50:36;17.95;;;5.93;;
46399;SDS011;32104;50.838;4.388;2024-02-14T07:53:19;14.93;;;6.13;;
46399;SDS011;32104;50.838;4.388;2024-02-14T07:55:51;14.88;;;6.28;;
46399;SDS011;32104;50.838;4.388;2024-02-14T07:58:31;17.35;;;6.32;;
46399;SDS011;32104;50.838;4.388;2024-02-14T08:08:58;12.63;;;4.97;;
46399;SDS011;32104;50.838;4.388;2024-02-14T08:11:52;10.13;;;4.63;;
46399;SDS011;32104;50.838;4.388;2024-02-14T08:14:29;12.77;;;5.60;;
46399;SDS011;32104;50.838;4.388;2024-02-14T08:17:00;18.17;;;5.32;;
46399;SDS011;32104;50.838;4.388;2024-02-14T08:19:28;14.02;;;5.45;;
46399;SDS011;32104;50.838;4.388;2024-02-14T08:21:59;10.27;;;4.78;;
46399;SDS011;32104;50.838;4.388;2024-02-14T08:24:27;14.70;;;6.15;;
46399;SDS011;32104;50.838;4.388;2024-02-14T08:26:57;15.93;;;5.90;;
46399;SDS011;32104;50.838;4.388;2024-02-14T08:29:23;22.27;;;6.18;;
46399;SDS011;32104;50.838;4.388;2024-02-14T08:31:53;20.42;;;6.97;;
46399;SDS011;32104;50.838;4.388;2024-02-14T08:34:21;20.52;;;6.65;;
46399;SDS011;32104;50.838;4.388;2024-02-14T08:36:47;24.27;;;6.35;;
46399;SDS011;32104;50.838;4.388;2024-02-14T08:39:17;20.88;;;7.35;;
46399;SDS011;32104;50.838;4.388;2024-02-14T08:41:49;16.95;;;6.43;;
46399;SDS011;32104;50.838;4.388;2024-02-14T08:44:20;29.30;;;7.97;;
46399;SDS011;32104;50.838;4.388;2024-02-14T08:46:46;18.77;;;6.80;;
46399;SDS011;32104;50.838;4.388;2024-02-14T08:49:15;20.25;;;7.97;;
46399;SDS011;32104;50.838;4.388;2024-02-14T08:51:47;20.52;;;6.88;;
46399;SDS011;32104;50.838;4.388;2024-02-14T08:54:26;15.38;;;6.85;;
46399;SDS011;32104;50.838;4.388;2024-02-14T08:57:05;14.40;;;7.40;;
46399;SDS011;32104;50.838;4.388;2024-02-14T09:03:09;18.38;;;7.55;;
46399;SDS011;32104;50.838;4.388;2024-02-14T09:06:07;15.73;;;7.57;;
46399;SDS011;32104;50.838;4.388;2024-02-14T09:09:08;15.80;;;7.78;;
46399;SDS011;32104;50.838;4.388;2024-02-14T09:14:30;22.45;;;7.95;;
46399;SDS011;32104;50.838;4.388;2024-02-14T09:17:29;18.02;;;7.25;;
46399;SDS011;32104;50.838;4.388;2024-02-14T09:20:14;16.83;;;7.18;;
46399;SDS011;32104;50.838;4.388;2024-02-14T09:23:06;13.48;;;7.78;;
46399;SDS011;32104;50.838;4.388;2024-02-14T09:29:01;17.33;;;7.78;;
46399;SDS011;32104;50.838;4.388;2024-02-14T09:31:30;18.77;;;6.40;;
46399;SDS011;32104;50.838;4.388;2024-02-14T09:34:08;14.18;;;7.35;;
46399;SDS011;32104;50.838;4.388;2024-02-14T09:36:47;16.90;;;6.38;;
46399;SDS011;32104;50.838;4.388;2024-02-14T09:39:37;11.38;;;5.72;;
46399;SDS011;32104;50.838;4.388;2024-02-14T09:45:09;17.70;;;6.30;;
46399;SDS011;32104;50.838;4.388;2024-02-14T09:48:04;13.15;;;5.78;;
46399;SDS011;32104;50.838;4.388;2024-02-14T09:50:32;13.88;;;5.45;;
46399;SDS011;32104;50.838;4.388;2024-02-14T09:53:01;10.95;;;4.97;;
46399;SDS011;32104;50.838;4.388;2024-02-14T09:55:38;7.15;;;4.60;;
46399;SDS011;32104;50.838;4.388;2024-02-14T09:58:14;14.30;;;5.90;;
46399;SDS011;32104;50.838;4.388;2024-02-14T10:00:49;12.73;;;5.38;;
46399;SDS011;32104;50.838;4.388;2024-02-14T10:06:23;8.73;;;4.70;;
46399;SDS011;32104;50.838;4.388;2024-02-14T10:09:03;10.43;;;4.80;;
46399;SDS011;32104;50.838;4.388;2024-02-14T10:11:34;10.73;;;4.63;;
46399;SDS011;32104;50.838;4.388;2024-02-14T10:14:05;7.70;;;3.63;;
46399;SDS011;32104;50.838;4.388;2024-02-14T10:16:42;10.48;;;3.95;;
46399;SDS011;32104;50.838;4.388;2024-02-14T10:19:30;8.77;;;3.80;;
46399;SDS011;32104;50.838;4.388;2024-02-14T10:22:00;10.35;;;4.50;;
46399;SDS011;32104;50.838;4.388;2024-02-14T10:24:39;7.53;;;3.50;;
46399;SDS011;32104;50.838;4.388;2024-02-14T10:29:40;4.93;;;2.72;;
46399;SDS011;32104;50.838;4.388;2024-02-14T10:32:14;6.53;;;3.45;;
46399;SDS011;32104;50.838;4.388;2024-02-14T10:34:41;12.25;;;3.42;;
46399;SDS011;32104;50.838;4.388;2024-02-14T10:37:30;7.55;;;3.50;;
46399;SDS011;32104;50.838;4.388;2024-02-14T10:40:07;4.15;;;2.60;;
46399;SDS011;32104;50.838;4.388;2024-02-14T10:42:54;5.35;;;2.45;;
46399;SDS011;32104;50.838;4.388;2024-02-14T10:45:36;6.47;;;2.20;;
46399;SDS011;32104;50.838;4.388;2024-02-14T10:48:11;6.78;;;2.38;;
46399;SDS011;32104;50.838;4.388;2024-02-14T10:50:50;3.58;;;2.13;;
46399;SDS011;32104;50.838;4.388;2024-02-14T10:56:31;6.00;;;2.28;;
46399;SDS011;32104;50.838;4.388;2024-02-14T11:02:11;4.50;;;2.00;;
46399;SDS011;32104;50.838;4.388;2024-02-14T11:04:53;3.20;;;1.58;;
46399;SDS011;32104;50.838;4.388;2024-02-14T11:07:44;3.63;;;1.48;;
46399;SDS011;32104;50.838;4.388;2024-02-14T11:12:57;4.40;;;2.28;;
46399;SDS011;32104;50.838;4.388;2024-02-14T11:15:47;9.45;;;4.55;;
46399;SDS011;32104;50.838;4.388;2024-02-14T11:18:37;6.50;;;2.30;;
46399;SDS011;32104;50.838;4.388;2024-02-14T11:21:15;11.85;;;2.95;;
46399;SDS011;32104;50.838;4.388;2024-02-14T11:24:00;9.57;;;4.15;;
46399;SDS011;32104;50.838;4.388;2024-02-14T11:29:31;6.05;;;2.97;;
46399;SDS011;32104;50.838;4.388;2024-02-14T11:32:02;5.60;;;3.10;;
46399;SDS011;32104;50.838;4.388;2024-02-14T11:34:34;7.10;;;3.15;;
46399;SDS011;32104;50.838;4.388;2024-02-14T11:37:06;9.73;;;3.30;;
46399;SDS011;32104;50.838;4.388;2024-02-14T11:39:40;5.68;;;2.85;;
46399;SDS011;32104;50.838;4.388;2024-02-14T11:42:12;6.65;;;3.42;;
46399;SDS011;32104;50.838;4.388;2024-02-14T11:45:01;9.63;;;2.75;;
46399;SDS011;32104;50.838;4.388;2024-02-14T11:48:18;9.20;;;3.17;;
46399;SDS011;32104;50.838;4.388;2024-02-14T11:51:17;8.77;;;3.53;;
46399;SDS011;32104;50.838;4.388;2024-02-14T11:56:23;14.23;;;3.03;;
46399;SDS011;32104;50.838;4.388;2024-02-14T11:59:10;12.32;;;3.20;;
46399;SDS011;32104;50.838;4.388;2024-02-14T12:01:44;7.22;;;3.30;;
46399;SDS011;32104;50.838;4.388;2024-02-14T12:04:26;14.82;;;3.50;;
46399;SDS011;32104;50.838;4.388;2024-02-14T12:07:09;13.18;;;3.40;;
46399;SDS011;32104;50.838;4.388;2024-02-14T12:10:01;10.70;;;3.08;;
46399;SDS011;32104;50.838;4.388;2024-02-14T12:13:12;9.07;;;3.22;;
46399;SDS011;32104;50.838;4.388;2024-02-14T12:15:47;8.85;;;2.65;;
46399;SDS011;32104;50.838;4.388;2024-02-14T12:18:21;14.00;;;3.67;;
46399;SDS011;32104;50.838;4.388;2024-02-14T12:20:52;7.78;;;3.13;;
46399;SDS011;32104;50.838;4.388;2024-02-14T12:23:35;10.77;;;3.47;;
46399;SDS011;32104;50.838;4.388;2024-02-14T12:26:21;13.52;;;4.78;;
46399;SDS011;32104;50.838;4.388;2024-02-14T12:29:11;12.05;;;4.03;;
46399;SDS011;32104;50.838;4.388;2024-02-14T12:31:47;11.85;;;3.55;;
46399;SDS011;32104;50.838;4.388;2024-02-14T12:34:17;11.70;;;4.57;;
46399;SDS011;32104;50.838;4.388;2024-02-14T12:36:46;11.50;;;3.97;;
46399;SDS011;32104;50.838;4.388;2024-02-14T12:39:27;10.73;;;3.63;;
46399;SDS011;32104;50.838;4.388;2024-02-14T12:42:16;10.05;;;3.35;;
46399;SDS011;32104;50.838;4.388;2024-02-14T12:44:49;10.18;;;3.50;;
46399;SDS011;32104;50.838;4.388;2024-02-14T12:47:28;6.95;;;3.08;;
46399;SDS011;32104;50.838;4.388;2024-02-14T12:50:24;5.45;;;2.55;;
46399;SDS011;32104;50.838;4.388;2024-02-14T12:56:18;4.72;;;2.67;;
46399;SDS011;32104;50.838;4.388;2024-02-14T12:58:47;10.68;;;3.25;;
46399;SDS011;32104;50.838;4.388;2024-02-14T13:01:42;7.50;;;3.25;;
46399;SDS011;32104;50.838;4.388;2024-02-14T13:04:15;5.30;;;2.22;;
46399;SDS011;32104;50.838;4.388;2024-02-14T13:06:52;6.28;;;2.42;;
46399;SDS011;32104;50.838;4.388;2024-02-14T13:09:40;8.30;;;2.70;;
46399;SDS011;32104;50.838;4.388;2024-02-14T13:12:19;9.68;;;2.25;;
46399;SDS011;32104;50.838;4.388;2024-02-14T13:15:00;3.65;;;2.22;;
46399;SDS011;32104;50.838;4.388;2024-02-14T13:20:25;9.10;;;2.25;;
46399;SDS011;32104;50.838;4.388;2024-02-14T13:23:01;8.73;;;1.85;;
46399;SDS011;32104;50.838;4.388;2024-02-14T13:25:35;7.40;;;1.90;;
46399;SDS011;32104;50.838;4.388;2024-02-14T13:28:08;5.05;;;2.00;;
46399;SDS011;32104;50.838;4.388;2024-02-14T13:31:03;7.07;;;2.45;;
46399;SDS011;32104;50.838;4.388;2024-02-14T13:39:26;4.15;;;1.95;;
46399;SDS011;32104;50.838;4.388;2024-02-14T13:41:54;8.35;;;2.30;;
46399;SDS011;32104;50.838;4.388;2024-02-14T13:44:42;10.52;;;2.58;;
46399;SDS011;32104;50.838;4.388;2024-02-14T13:47:20;8.63;;;1.83;;
46399;SDS011;32104;50.838;4.388;2024-02-14T13:49:56;5.13;;;2.30;;
46399;SDS011;32104;50.838;4.388;2024-02-14T13:52:31;6.53;;;1.83;;
46399;SDS011;32104;50.838;4.388;2024-02-14T13:55:26;5.88;;;1.90;;
46399;SDS011;32104;50.838;4.388;2024-02-14T13:58:17;5.40;;;1.90;;
46399;SDS011;32104;50.838;4.388;2024-02-14T14:00:59;4.97;;;1.98;;
46399;SDS011;32104;50.838;4.388;2024-02-14T14:03:42;4.70;;;1.85;;
46399;SDS011;32104;50.838;4.388;2024-02-14T14:07:10;7.20;;;2.10;;
46399;SDS011;32104;50.838;4.388;2024-02-14T14:12:59;4.00;;;1.70;;
46399;SDS011;32104;50.838;4.388;2024-02-14T14:16:02;4.28;;;1.40;;
46399;SDS011;32104;50.838;4.388;2024-02-14T14:18:40;4.65;;;1.55;;
46399;SDS011;32104;50.838;4.388;2024-02-14T14:25:19;5.15;;;1.27;;
46399;SDS011;32104;50.838;4.388;2024-02-14T14:28:06;3.20;;;1.50;;
46399;SDS011;32104;50.838;4.388;2024-02-14T14:33:52;4.50;;;1.40;;
46399;SDS011;32104;50.838;4.388;2024-02-14T14:39:15;5.55;;;1.30;;
46399;SDS011;32104;50.838;4.388;2024-02-14T14:41:49;2.90;;;1.25;;
46399;SDS011;32104;50.838;4.388;2024-02-14T14:44:31;5.22;;;1.52;;
46399;SDS011;32104;50.838;4.388;2024-02-14T14:50:24;11.55;;;2.03;;
46399;SDS011;32104;50.838;4.388;2024-02-14T14:53:13;4.25;;;1.30;;
46399;SDS011;32104;50.838;4.388;2024-02-14T14:55:58;5.35;;;1.30;;
46399;SDS011;32104;50.838;4.388;2024-02-14T14:59:10;3.78;;;1.20;;
46399;SDS011;32104;50.838;4.388;2024-02-14T15:01:40;3.50;;;0.88;;
46399;SDS011;32104;50.838;4.388;2024-02-14T15:04:16;5.07;;;1.40;;
46399;SDS011;32104;50.838;4.388;2024-02-14T15:07:02;3.22;;;1.08;;
46399;SDS011;32104;50.838;4.388;2024-02-14T15:10:20;2.63;;;1.13;;
46399;SDS011;32104;50.838;4.388;2024-02-14T15:12:57;3.20;;;1.08;;
46399;SDS011;32104;50.838;4.388;2024-02-14T15:15:28;2.50;;;1.20;;
46399;SDS011;32104;50.838;4.388;2024-02-14T15:22:14;5.22;;;1.63;;
46399;SDS011;32104;50.838;4.388;2024-02-14T15:35:19;1.75;;;0.90;;
46399;SDS011;32104;50.838;4.388;2024-02-14T15:44:31;6.18;;;1.10;;
46399;SDS011;32104;50.838;4.388;2024-02-14T15:47:48;6.35;;;1.30;;
46399;SDS011;32104;50.838;4.388;2024-02-14T15:54:40;5.32;;;1.52;;
46399;SDS011;32104;50.838;4.388;2024-02-14T16:01:03;3.25;;;1.80;;
46399;SDS011;32104;50.838;4.388;2024-02-14T16:09:55;10.70;;;1.77;;
46399;SDS011;32104;50.838;4.388;2024-02-14T16:12:30;8.38;;;1.65;;
46399;SDS011;32104;50.838;4.388;2024-02-14T16:15:35;7.65;;;2.20;;
46399;SDS011;32104;50.838;4.388;2024-02-14T16:18:05;7.47;;;2.55;;
46399;SDS011;32104;50.838;4.388;2024-02-14T16:24:25;5.35;;;1.30;;
46399;SDS011;32104;50.838;4.388;2024-02-14T16:27:01;8.15;;;1.30;;
46399;SDS011;32104;50.838;4.388;2024-02-14T16:29:33;3.65;;;1.10;;
46399;SDS011;32104;50.838;4.388;2024-02-14T16:32:06;7.85;;;1.00;;
46399;SDS011;32104;50.838;4.388;2024-02-14T16:34:36;8.38;;;1.48;;
46399;SDS011;32104;50.838;4.388;2024-02-14T16:37:21;7.50;;;2.20;;
46399;SDS011;32104;50.838;4.388;2024-02-14T16:40:09;6.47;;;1.75;;
46399;SDS011;32104;50.838;4.388;2024-02-14T16:43:26;8.63;;;2.20;;
46399;SDS011;32104;50.838;4.388;2024-02-14T16:46:15;3.95;;;1.45;;
46399;SDS011;32104;50.838;4.388;2024-02-14T16:48:50;6.60;;;1.90;;
46399;SDS011;32104;50.838;4.388;2024-02-14T16:54:32;5.75;;;1.30;;
46399;SDS011;32104;50.838;4.388;2024-02-14T16:57:25;9.63;;;1.50;;
46399;SDS011;32104;50.838;4.388;2024-02-14T17:00:06;4.03;;;1.30;;
46399;SDS011;32104;50.838;4.388;2024-02-14T17:02:38;7.00;;;1.67;;
46399;SDS011;32104;50.838;4.388;2024-02-14T17:05:35;9.07;;;1.90;;
46399;SDS011;32104;50.838;4.388;2024-02-14T17:08:16;9.65;;;1.60;;
46399;SDS011;32104;50.838;4.388;2024-02-14T17:11:14;8.32;;;1.70;;
46399;SDS011;32104;50.838;4.388;2024-02-14T17:13:49;7.95;;;1.77;;
46399;SDS011;32104;50.838;4.388;2024-02-14T17:16:46;11.57;;;1.63;;
46399;SDS011;32104;50.838;4.388;2024-02-14T17:19:45;4.55;;;1.48;;
46399;SDS011;32104;50.838;4.388;2024-02-14T17:22:26;9.15;;;1.50;;
46399;SDS011;32104;50.838;4.388;2024-02-14T17:25:15;11.50;;;1.60;;
46399;SDS011;32104;50.838;4.388;2024-02-14T17:27:50;6.72;;;1.27;;
46399;SDS011;32104;50.838;4.388;2024-02-14T17:30:31;10.60;;;1.63;;
46399;SDS011;32104;50.838;4.388;2024-02-14T17:36:20;5.18;;;1.33;;
46399;SDS011;32104;50.838;4.388;2024-02-14T17:38:57;6.13;;;1.60;;
46399;SDS011;32104;50.838;4.388;2024-02-14T17:54:47;6.95;;;1.98;;
46399;SDS011;32104;50.838;4.388;2024-02-14T17:57:13;7.00;;;1.98;;
46399;SDS011;32104;50.838;4.388;2024-02-14T18:04:12;9.77;;;2.72;;
46399;SDS011;32104;50.838;4.388;2024-02-14T18:06:44;19.05;;;2.47;;
46399;SDS011;32104;50.838;4.388;2024-02-14T18:25:51;12.40;;;3.55;;
46399;SDS011;32104;50.838;4.388;2024-02-14T18:28:39;20.40;;;3.95;;
46399;SDS011;32104;50.838;4.388;2024-02-14T18:31:17;13.75;;;3.25;;
46399;SDS011;32104;50.838;4.388;2024-02-14T18:40:31;9.55;;;2.80;;
46399;SDS011;32104;50.838;4.388;2024-02-14T18:43:19;15.05;;;3.33;;
46399;SDS011;32104;50.838;4.388;2024-02-14T18:46:27;18.40;;;3.72;;
46399;SDS011;32104;50.838;4.388;2024-02-14T18:48:57;9.55;;;2.65;;
46399;SDS011;32104;50.838;4.388;2024-02-14T18:51:26;11.02;;;3.83;;
46399;SDS011;32104;50.838;4.388;2024-02-14T18:54:04;12.43;;;3.08;;
46399;SDS011;32104;50.838;4.388;2024-02-14T18:56:30;10.57;;;2.35;;
46399;SDS011;32104;50.838;4.388;2024-02-14T19:01:35;18.70;;;3.25;;
46399;SDS011;32104;50.838;4.388;2024-02-14T19:04:07;17.25;;;3.00;;
46399;SDS011;32104;50.838;4.388;2024-02-14T19:06:36;11.27;;;2.75;;
46399;SDS011;32104;50.838;4.388;2024-02-14T19:09:13;18.95;;;2.70;;
46399;SDS011;32104;50.838;4.388;2024-02-14T19:11:41;12.25;;;2.75;;
46399;SDS011;32104;50.838;4.388;2024-02-14T19:14:29;12.45;;;3.30;;
46399;SDS011;32104;50.838;4.388;2024-02-14T19:17:01;13.70;;;2.65;;
46399;SDS011;32104;50.838;4.388;2024-02-14T19:19:28;14.68;;;2.85;;
46399;SDS011;32104;50.838;4.388;2024-02-14T19:22:03;11.82;;;3.22;;
46399;SDS011;32104;50.838;4.388;2024-02-14T19:24:45;15.02;;;3.33;;
46399;SDS011;32104;50.838;4.388;2024-02-14T19:27:39;11.30;;;3.10;;
46399;SDS011;32104;50.838;4.388;2024-02-14T19:30:29;17.88;;;3.03;;
46399;SDS011;32104;50.838;4.388;2024-02-14T19:33:18;11.13;;;4.53;;
46399;SDS011;32104;50.838;4.388;2024-02-14T19:35:52;13.32;;;4.53;;
46399;SDS011;32104;50.838;4.388;2024-02-14T19:38:51;10.90;;;3.90;;
46399;SDS011;32104;50.838;4.388;2024-02-14T19:44:34;11.43;;;4.40;;
46399;SDS011;32104;50.838;4.388;2024-02-14T19:47:24;15.85;;;5.95;;
46399;SDS011;32104;50.838;4.388;2024-02-14T19:49:54;20.40;;;6.50;;
46399;SDS011;32104;50.838;4.388;2024-02-14T19:52:34;20.00;;;5.70;;
46399;SDS011;32104;50.838;4.388;2024-02-14T19:55:19;15.68;;;5.97;;
46399;SDS011;32104;50.838;4.388;2024-02-14T19:58:04;14.02;;;5.50;;
46399;SDS011;32104;50.838;4.388;2024-02-14T20:00:33;18.48;;;6.53;;
46399;SDS011;32104;50.838;4.388;2024-02-14T20:03:16;23.52;;;7.60;;
46399;SDS011;32104;50.838;4.388;2024-02-14T20:11:56;21.42;;;9.23;;
46399;SDS011;32104;50.838;4.388;2024-02-14T20:17:16;26.08;;;8.35;;
46399;SDS011;32104;50.838;4.388;2024-02-14T20:20:05;21.90;;;9.90;;
46399;SDS011;32104;50.838;4.388;2024-02-14T20:26:43;17.55;;;9.15;;
46399;SDS011;32104;50.838;4.388;2024-02-14T20:32:37;25.55;;;11.30;;